Time;durP1;ratioP1;P1;durP2;ratioP2;P2;SDS_P1;SDS_P2;PMS_P1;PMS_P2;Temp;Humidity;BMP_temperature;BMP_pressure;BME280_temperature;BME280_humidity;BME280_pressure;Samples;Min_cycle;Max_cycle;Signal;HPM_P1;HPM_P2
2023/09/28 00:02:26;;;;;;;8.95;5.40;;;;;;;;;;5158911;27;20025;-73
2023/09/28 00:05:19;;;;;;;8.38;5.78;;;;;;;;;;5159845;27;20050;-73
2023/09/28 00:08:05;;;;;;;10.95;5.03;;;;;;;;;;5157745;27;20444;-73
2023/09/28 00:10:50;;;;;;;11.77;5.03;;;;;;;;;;5158432;27;20031;-73
2023/09/28 00:13:36;;;;;;;13.68;5.15;;;;;;;;;;5158562;27;20436;-73
2023/09/28 00:16:22;;;;;;;8.45;5.07;;;;;;;;;;5144083;27;20069;-72
2023/09/28 00:19:08;;;;;;;11.68;5.78;;;;;;;;;;5158805;27;20033;-72
2023/09/28 00:21:54;;;;;;;14.25;6.05;;;;;;;;;;5156809;27;20083;-73
2023/09/28 00:24:39;;;;;;;19.20;6.38;;;;;;;;;;5157466;27;20014;-73
2023/09/28 00:27:25;;;;;;;15.90;5.22;;;;;;;;;;5157262;27;20015;-73
2023/09/28 00:30:18;;;;;;;8.95;5.07;;;;;;;;;;5142772;27;20137;-73
2023/09/28 00:33:04;;;;;;;11.32;5.07;;;;;;;;;;5159000;27;20048;-73
2023/09/28 00:35:49;;;;;;;11.88;5.30;;;;;;;;;;5157594;27;20079;-73
2023/09/28 00:38:36;;;;;;;12.07;5.07;;;;;;;;;;5157518;27;20022;-73
2023/09/28 00:41:21;;;;;;;8.02;4.80;;;;;;;;;;5157301;27;20046;-73
2023/09/28 00:44:07;;;;;;;9.52;5.45;;;;;;;;;;5157475;27;20459;-73
2023/09/28 00:46:52;;;;;;;11.15;5.20;;;;;;;;;;5157169;27;20500;-73
2023/09/28 00:49:38;;;;;;;9.68;5.50;;;;;;;;;;5156032;27;20425;-73
2023/09/28 00:52:24;;;;;;;9.52;4.88;;;;;;;;;;5142006;27;20103;-72
2023/09/28 00:55:11;;;;;;;12.75;4.82;;;;;;;;;;5141972;27;20378;-72
2023/09/28 00:57:58;;;;;;;11.32;5.07;;;;;;;;;;5157735;27;20352;-73
2023/09/28 01:00:44;;;;;;;9.23;4.32;;;;;;;;;;5142599;27;20031;-72
2023/09/28 01:03:31;;;;;;;8.90;5.03;;;;;;;;;;5157158;27;20022;-72
2023/09/28 01:06:16;;;;;;;11.30;6.05;;;;;;;;;;5156383;27;20018;-73
2023/09/28 01:09:07;;;;;;;15.85;5.20;;;;;;;;;;5157494;27;20037;-72
2023/09/28 01:11:53;;;;;;;10.43;4.90;;;;;;;;;;5156683;27;20444;-73
2023/09/28 01:14:39;;;;;;;9.48;4.90;;;;;;;;;;5142742;27;20107;-72
2023/09/28 01:17:24;;;;;;;8.88;5.20;;;;;;;;;;5157739;27;20171;-73
2023/09/28 01:20:25;;;;;;;11.63;5.00;;;;;;;;;;5156496;27;20044;-72
2023/09/28 01:23:11;;;;;;;14.38;4.88;;;;;;;;;;5157082;27;20029;-73
2023/09/28 01:25:56;;;;;;;11.55;4.93;;;;;;;;;;5156796;27;20372;-73
2023/09/28 01:28:42;;;;;;;13.30;5.18;;;;;;;;;;5156633;27;20023;-73
2023/09/28 01:31:28;;;;;;;15.27;5.85;;;;;;;;;;5156501;27;20180;-73
2023/09/28 01:34:13;;;;;;;8.25;4.93;;;;;;;;;;5157032;27;20023;-73
2023/09/28 01:37:00;;;;;;;8.73;4.78;;;;;;;;;;5156342;27;20312;-73
2023/09/28 01:39:45;;;;;;;11.35;5.28;;;;;;;;;;5156347;27;20025;-73
2023/09/28 01:42:31;;;;;;;14.27;5.07;;;;;;;;;;5156140;27;20026;-73
2023/09/28 01:45:17;;;;;;;12.75;5.10;;;;;;;;;;5155990;27;20090;-73
2023/09/28 01:48:03;;;;;;;9.30;5.00;;;;;;;;;;5157258;27;20094;-73
2023/09/28 01:50:49;;;;;;;14.95;4.72;;;;;;;;;;5156111;27;20039;-74
2023/09/28 01:53:35;;;;;;;13.25;4.68;;;;;;;;;;5141181;27;20460;-73
2023/09/28 01:56:21;;;;;;;12.68;4.80;;;;;;;;;;5155691;27;20046;-72
2023/09/28 01:59:06;;;;;;;9.25;5.15;;;;;;;;;;5156043;27;20026;-72
2023/09/28 02:01:52;;;;;;;11.43;4.85;;;;;;;;;;5156317;27;20440;-73
2023/09/28 02:04:38;;;;;;;16.65;4.80;;;;;;;;;;5155472;27;20048;-73
2023/09/28 02:07:23;;;;;;;12.50;4.88;;;;;;;;;;5155999;27;20019;-73
2023/09/28 02:10:10;;;;;;;11.20;5.05;;;;;;;;;;5155649;27;20051;-73
2023/09/28 02:12:55;;;;;;;17.15;5.20;;;;;;;;;;5156479;27;20030;-73
2023/09/28 02:15:43;;;;;;;10.82;4.60;;;;;;;;;;5155833;27;20348;-72
2023/09/28 02:18:29;;;;;;;11.55;5.03;;;;;;;;;;5155618;27;20019;-73
2023/09/28 02:21:15;;;;;;;8.13;4.63;;;;;;;;;;5155737;27;20425;-73
2023/09/28 02:24:01;;;;;;;13.07;5.53;;;;;;;;;;5140156;27;20023;-72
2023/09/28 02:26:47;;;;;;;8.02;5.10;;;;;;;;;;5140312;27;20015;-73
2023/09/28 02:29:33;;;;;;;12.23;4.82;;;;;;;;;;5154985;27;20022;-72
2023/09/28 02:32:18;;;;;;;12.25;4.75;;;;;;;;;;5155025;27;20015;-72
2023/09/28 02:35:06;;;;;;;10.27;4.75;;;;;;;;;;5140826;27;20023;-73
2023/09/28 02:37:53;;;;;;;9.77;4.97;;;;;;;;;;5156047;27;20061;-72
2023/09/28 02:40:39;;;;;;;15.70;4.90;;;;;;;;;;5155068;27;20019;-73
2023/09/28 02:43:24;;;;;;;12.90;5.28;;;;;;;;;;5155034;27;20025;-72
2023/09/28 02:46:10;;;;;;;9.30;4.78;;;;;;;;;;5155467;27;20034;-72
2023/09/28 02:48:56;;;;;;;9.30;4.97;;;;;;;;;;5155408;27;20043;-72
2023/09/28 02:51:43;;;;;;;10.88;5.03;;;;;;;;;;5155572;27;20083;-72
2023/09/28 02:54:29;;;;;;;12.25;5.05;;;;;;;;;;5155072;27;20027;-73
2023/09/28 02:57:15;;;;;;;12.05;5.60;;;;;;;;;;5140085;27;20019;-72
2023/09/28 03:00:02;;;;;;;14.73;5.75;;;;;;;;;;5154752;27;20152;-72
2023/09/28 03:02:49;;;;;;;9.95;4.95;;;;;;;;;;5140429;27;20167;-73
2023/09/28 03:05:38;;;;;;;13.10;5.10;;;;;;;;;;5154451;27;20031;-72
2023/09/28 03:08:24;;;;;;;11.45;5.70;;;;;;;;;;5154680;27;20037;-72
2023/09/28 03:11:11;;;;;;;8.02;4.95;;;;;;;;;;5154803;27;20076;-72
2023/09/28 03:13:56;;;;;;;9.95;5.30;;;;;;;;;;5154512;27;20051;-71
2023/09/28 03:16:42;;;;;;;13.18;5.78;;;;;;;;;;5154570;27;20030;-72
2023/09/28 03:19:28;;;;;;;18.00;5.40;;;;;;;;;;5153996;27;20030;-72
2023/09/28 03:22:13;;;;;;;13.15;6.00;;;;;;;;;;5154448;27;20047;-73
2023/09/28 03:25:01;;;;;;;12.00;6.30;;;;;;;;;;5155006;27;20098;-71
2023/09/28 03:27:47;;;;;;;12.75;6.10;;;;;;;;;;5139102;27;20356;-72
2023/09/28 03:30:33;;;;;;;12.45;6.15;;;;;;;;;;5155131;27;20065;-73
2023/09/28 03:33:18;;;;;;;9.73;5.82;;;;;;;;;;5154315;27;20022;-73
2023/09/28 03:36:04;;;;;;;12.98;6.35;;;;;;;;;;5154891;27;20046;-73
2023/09/28 03:38:50;;;;;;;13.65;6.53;;;;;;;;;;5139199;27;20034;-73
2023/09/28 03:41:37;;;;;;;9.85;6.43;;;;;;;;;;5139688;27;20356;-72
2023/09/28 03:44:22;;;;;;;12.18;6.22;;;;;;;;;;5141861;27;20446;-73
2023/09/28 03:47:08;;;;;;;9.50;6.45;;;;;;;;;;5154755;27;20019;-74
2023/09/28 03:49:53;;;;;;;14.20;6.43;;;;;;;;;;5155704;27;20480;-72
2023/09/28 03:52:40;;;;;;;13.38;6.38;;;;;;;;;;5154451;27;20019;-72
2023/09/28 03:55:25;;;;;;;13.55;6.30;;;;;;;;;;5155100;27;20027;-72
2023/09/28 03:58:11;;;;;;;11.88;6.00;;;;;;;;;;5155224;27;20033;-71
2023/09/28 04:00:57;;;;;;;17.65;6.90;;;;;;;;;;5154219;27;20038;-72
2023/09/28 04:03:43;;;;;;;16.38;7.47;;;;;;;;;;5155083;27;20026;-73
2023/09/28 04:06:28;;;;;;;22.88;6.60;;;;;;;;;;5154235;27;20053;-71
2023/09/28 04:09:15;;;;;;;19.20;7.25;;;;;;;;;;5153195;27;20505;-71
2023/09/28 04:12:00;;;;;;;14.80;6.70;;;;;;;;;;5154829;27;20098;-71
2023/09/28 04:14:47;;;;;;;27.65;11.80;;;;;;;;;;5154981;27;20011;-71
2023/09/28 04:17:34;;;;;;;16.50;7.55;;;;;;;;;;5154729;27;20084;-72
2023/09/28 04:20:20;;;;;;;17.30;7.45;;;;;;;;;;5153868;27;20030;-72
2023/09/28 04:23:08;;;;;;;14.90;8.00;;;;;;;;;;5139865;27;20023;-72
2023/09/28 04:25:54;;;;;;;16.48;7.10;;;;;;;;;;5158692;27;20360;-72
2023/09/28 04:28:40;;;;;;;13.65;8.18;;;;;;;;;;5143018;27;20026;-72
2023/09/28 04:31:26;;;;;;;16.60;7.15;;;;;;;;;;5157685;27;20093;-73
2023/09/28 04:34:13;;;;;;;30.92;8.55;;;;;;;;;;5159175;27;20052;-71
2023/09/28 04:36:58;;;;;;;19.65;7.20;;;;;;;;;;5157583;27;20444;-70
2023/09/28 04:39:44;;;;;;;17.30;7.05;;;;;;;;;;5157800;27;20105;-71
2023/09/28 04:42:30;;;;;;;15.77;6.97;;;;;;;;;;5157663;27;20093;-71
2023/09/28 04:45:15;;;;;;;19.58;7.32;;;;;;;;;;5158282;27;20373;-71
2023/09/28 04:48:01;;;;;;;18.90;8.13;;;;;;;;;;5158094;27;20015;-71
2023/09/28 04:50:47;;;;;;;17.95;6.93;;;;;;;;;;5142211;27;20121;-71
2023/09/28 04:53:33;;;;;;;17.65;8.25;;;;;;;;;;5157069;27;20094;-72
2023/09/28 04:56:18;;;;;;;16.77;7.05;;;;;;;;;;5157684;27;20029;-71
2023/09/28 04:59:04;;;;;;;18.85;7.20;;;;;;;;;;5157784;27;20394;-71
2023/09/28 05:01:49;;;;;;;20.38;7.78;;;;;;;;;;5157148;27;20030;-72
2023/09/28 05:04:35;;;;;;;22.27;7.80;;;;;;;;;;5142600;27;20061;-71
2023/09/28 05:07:20;;;;;;;21.40;7.70;;;;;;;;;;5158464;27;20015;-72
2023/09/28 05:10:08;;;;;;;19.92;8.00;;;;;;;;;;5156721;27;20019;-72
2023/09/28 05:12:53;;;;;;;19.90;8.30;;;;;;;;;;5156000;27;20015;-71
2023/09/28 05:15:39;;;;;;;20.20;8.13;;;;;;;;;;5156708;27;20030;-72
2023/09/28 05:18:25;;;;;;;21.00;8.20;;;;;;;;;;5141741;27;20030;-72
2023/09/28 05:21:12;;;;;;;21.98;8.52;;;;;;;;;;5156753;27;20022;-72
2023/09/28 05:23:58;;;;;;;21.52;8.23;;;;;;;;;;5157627;27;20054;-71
2023/09/28 05:26:43;;;;;;;20.95;8.32;;;;;;;;;;5156497;27;20023;-73
2023/09/28 05:29:30;;;;;;;27.05;8.13;;;;;;;;;;5157157;27;20118;-73
2023/09/28 05:32:15;;;;;;;22.95;8.60;;;;;;;;;;5156495;27;20019;-72
2023/09/28 05:35:01;;;;;;;21.58;7.70;;;;;;;;;;5155772;27;20083;-72
2023/09/28 05:37:47;;;;;;;24.15;7.65;;;;;;;;;;5157491;27;20026;-73
2023/09/28 05:40:32;;;;;;;27.95;7.93;;;;;;;;;;5141907;27;20349;-73
2023/09/28 05:43:18;;;;;;;24.70;7.68;;;;;;;;;;5156390;27;20015;-73
2023/09/28 05:46:04;;;;;;;27.50;7.65;;;;;;;;;;5156221;27;20031;-72
2023/09/28 05:48:49;;;;;;;25.05;8.35;;;;;;;;;;5141245;27;20464;-73
2023/09/28 05:51:35;;;;;;;23.88;8.07;;;;;;;;;;5156252;27;20032;-72
2023/09/28 05:54:21;;;;;;;43.00;8.20;;;;;;;;;;5155170;27;20015;-73
2023/09/28 05:57:07;;;;;;;37.85;8.00;;;;;;;;;;5155840;27;20018;-72
2023/09/28 05:59:52;;;;;;;19.55;7.95;;;;;;;;;;5156158;27;20049;-73
2023/09/28 06:02:39;;;;;;;21.27;8.02;;;;;;;;;;5124204;27;20380;-73
2023/09/28 06:05:25;;;;;;;19.38;8.35;;;;;;;;;;5155837;27;20079;-72
2023/09/28 06:08:10;;;;;;;17.48;6.55;;;;;;;;;;5155844;27;20094;-73
2023/09/28 06:10:56;;;;;;;20.02;7.13;;;;;;;;;;5140783;27;20468;-73
2023/09/28 06:13:42;;;;;;;20.13;6.35;;;;;;;;;;5141316;27;20027;-73
2023/09/28 06:16:28;;;;;;;16.15;6.53;;;;;;;;;;5141374;27;20022;-72
2023/09/28 06:19:13;;;;;;;18.10;7.20;;;;;;;;;;5140771;27;20054;-73
2023/09/28 06:21:59;;;;;;;17.02;6.32;;;;;;;;;;5140708;27;20018;-72
2023/09/28 06:24:46;;;;;;;27.40;7.40;;;;;;;;;;5140311;27;20033;-72
2023/09/28 06:27:32;;;;;;;21.15;6.68;;;;;;;;;;5140733;27;20019;-73
2023/09/28 06:30:17;;;;;;;15.18;6.13;;;;;;;;;;5140691;27;20015;-73
2023/09/28 06:33:03;;;;;;;16.65;6.43;;;;;;;;;;5139938;27;20018;-73
2023/09/28 06:35:49;;;;;;;19.95;7.38;;;;;;;;;;5155156;27;20067;-73
2023/09/28 06:38:34;;;;;;;16.48;6.97;;;;;;;;;;5155097;27;20034;-73
2023/09/28 06:41:20;;;;;;;17.00;6.18;;;;;;;;;;5155381;27;20019;-73
2023/09/28 06:44:06;;;;;;;16.17;7.07;;;;;;;;;;5140937;27;20022;-72
2023/09/28 06:46:51;;;;;;;16.58;7.18;;;;;;;;;;5139570;27;20023;-73
2023/09/28 06:49:37;;;;;;;12.75;6.20;;;;;;;;;;5133260;27;20067;-73
2023/09/28 06:52:23;;;;;;;26.48;7.10;;;;;;;;;;5135022;27;20019;-72
2023/09/28 06:55:09;;;;;;;12.55;6.22;;;;;;;;;;5133994;27;20030;-74
2023/09/28 06:57:55;;;;;;;25.98;6.63;;;;;;;;;;5134929;27;20080;-73
2023/09/28 07:00:41;;;;;;;16.77;6.93;;;;;;;;;;5133990;27;20330;-72
2023/09/28 07:03:27;;;;;;;13.32;6.20;;;;;;;;;;5135331;27;20023;-72
2023/09/28 07:06:13;;;;;;;14.23;5.78;;;;;;;;;;5134401;27;20106;-72
2023/09/28 07:08:59;;;;;;;13.82;6.28;;;;;;;;;;5134287;27;20087;-72
2023/09/28 07:11:44;;;;;;;10.77;5.07;;;;;;;;;;5134818;28;20034;-73
2023/09/28 07:14:30;;;;;;;12.32;4.75;;;;;;;;;;5135753;28;20027;-73
2023/09/28 07:17:15;;;;;;;17.20;6.30;;;;;;;;;;5134779;28;20100;-73
2023/09/28 07:20:03;;;;;;;9.85;5.88;;;;;;;;;;5133909;28;20031;-73
2023/09/28 07:22:49;;;;;;;15.07;6.38;;;;;;;;;;5133616;28;20117;-72
2023/09/28 07:25:35;;;;;;;13.88;6.82;;;;;;;;;;5133717;28;20023;-73
2023/09/28 07:28:21;;;;;;;16.48;7.63;;;;;;;;;;5133783;28;20455;-73
2023/09/28 07:31:06;;;;;;;15.40;7.07;;;;;;;;;;5133035;28;20026;-72
2023/09/28 07:33:52;;;;;;;15.48;6.20;;;;;;;;;;5134313;28;20016;-72
2023/09/28 07:36:39;;;;;;;10.15;5.35;;;;;;;;;;5134072;28;20482;-73
2023/09/28 07:39:25;;;;;;;12.82;5.63;;;;;;;;;;5134123;28;20027;-73
2023/09/28 07:42:10;;;;;;;11.93;5.53;;;;;;;;;;5147008;27;20107;-72
2023/09/28 07:44:56;;;;;;;11.25;5.82;;;;;;;;;;5134161;28;20015;-73
2023/09/28 07:47:42;;;;;;;12.85;5.63;;;;;;;;;;5134997;28;20106;-72
2023/09/28 07:50:28;;;;;;;13.00;4.90;;;;;;;;;;5146904;27;20043;-73
2023/09/28 07:53:14;;;;;;;15.52;5.78;;;;;;;;;;5133713;28;20023;-73
2023/09/28 07:55:59;;;;;;;13.75;5.63;;;;;;;;;;5134361;28;20047;-74
2023/09/28 07:58:45;;;;;;;9.80;5.63;;;;;;;;;;5135553;27;20025;-73
2023/09/28 08:01:36;;;;;;;13.20;5.32;;;;;;;;;;5137386;27;20015;-73
2023/09/28 08:04:21;;;;;;;12.85;5.00;;;;;;;;;;5138221;27;20026;-73
2023/09/28 08:07:07;;;;;;;17.67;5.32;;;;;;;;;;5137346;27;20031;-72
2023/09/28 08:09:53;;;;;;;20.70;5.50;;;;;;;;;;5137206;27;20110;-74
2023/09/28 08:12:39;;;;;;;10.63;4.70;;;;;;;;;;5137347;27;20019;-73
2023/09/28 08:15:25;;;;;;;10.52;4.90;;;;;;;;;;5138496;27;20015;-73
2023/09/28 08:18:10;;;;;;;10.68;5.45;;;;;;;;;;5137256;27;20057;-73
2023/09/28 08:20:56;;;;;;;10.98;5.30;;;;;;;;;;5136980;27;20030;-73
2023/09/28 08:23:42;;;;;;;8.50;4.93;;;;;;;;;;5138208;27;20027;-73
2023/09/28 08:26:28;;;;;;;9.20;5.15;;;;;;;;;;5136932;27;20027;-72
2023/09/28 08:29:15;;;;;;;8.27;5.13;;;;;;;;;;5137070;27;20345;-74
2023/09/28 08:32:01;;;;;;;11.88;4.55;;;;;;;;;;5137352;27;20062;-73
2023/09/28 08:34:46;;;;;;;10.23;4.75;;;;;;;;;;5137030;27;20022;-72
2023/09/28 08:37:34;;;;;;;15.15;5.13;;;;;;;;;;5136994;27;20015;-74
2023/09/28 08:40:20;;;;;;;15.02;5.47;;;;;;;;;;5136632;27;20023;-74
2023/09/28 08:43:08;;;;;;;16.80;6.85;;;;;;;;;;5136432;27;20023;-73
2023/09/28 08:45:53;;;;;;;9.68;4.88;;;;;;;;;;5137594;27;20019;-74
2023/09/28 08:48:40;;;;;;;18.77;5.45;;;;;;;;;;5138270;27;20361;-73
2023/09/28 08:51:27;;;;;;;12.85;5.78;;;;;;;;;;5142749;27;20042;-73
2023/09/28 08:54:13;;;;;;;15.63;5.47;;;;;;;;;;5142616;27;20018;-73
2023/09/28 08:56:59;;;;;;;8.48;4.22;;;;;;;;;;5157938;27;20014;-74
2023/09/28 08:59:46;;;;;;;13.07;4.80;;;;;;;;;;5143934;27;20014;-69
2023/09/28 09:02:31;;;;;;;13.05;6.28;;;;;;;;;;5142409;27;20039;-75
2023/09/28 09:05:17;;;;;;;13.90;6.53;;;;;;;;;;5142368;27;20014;-75
2023/09/28 09:08:03;;;;;;;13.15;4.03;;;;;;;;;;5143342;27;20050;-75
2023/09/28 09:10:50;;;;;;;6.97;4.18;;;;;;;;;;5140312;27;20015;-73
2023/09/28 09:13:47;;;;;;;10.70;4.38;;;;;;;;;;5158458;27;20332;-72
2023/09/28 09:16:32;;;;;;;10.18;4.45;;;;;;;;;;5142235;27;20025;-73
2023/09/28 09:19:18;;;;;;;9.40;4.78;;;;;;;;;;5142451;27;20083;-74
2023/09/28 09:22:04;;;;;;;11.82;6.07;;;;;;;;;;5142970;27;20463;-73
2023/09/28 09:25:00;;;;;;;17.77;5.80;;;;;;;;;;5157101;27;20068;-73
2023/09/28 09:27:46;;;;;;;15.68;5.75;;;;;;;;;;5141664;27;20030;-74
2023/09/28 09:30:35;;;;;;;16.67;4.85;;;;;;;;;;5141489;27;20018;-74
2023/09/28 09:33:22;;;;;;;16.40;4.55;;;;;;;;;;5157246;27;20032;-73
2023/09/28 09:36:08;;;;;;;11.48;4.53;;;;;;;;;;5157440;27;20417;-75
2023/09/28 09:38:53;;;;;;;9.73;3.95;;;;;;;;;;5156266;27;20023;-73
2023/09/28 09:41:42;;;;;;;12.95;4.45;;;;;;;;;;5141828;27;20026;-73
2023/09/28 09:44:28;;;;;;;9.07;4.18;;;;;;;;;;5157782;27;20125;-74
2023/09/28 09:47:14;;;;;;;14.20;5.72;;;;;;;;;;5156954;27;20592;-72
2023/09/28 09:50:01;;;;;;;29.73;5.13;;;;;;;;;;5157318;27;20045;-73
2023/09/28 09:52:47;;;;;;;8.30;4.35;;;;;;;;;;5156113;27;20439;-73
2023/09/28 09:55:34;;;;;;;9.95;4.28;;;;;;;;;;5157085;27;20100;-72
2023/09/28 09:58:22;;;;;;;13.65;4.57;;;;;;;;;;5142086;27;20018;-72
2023/09/28 10:01:12;;;;;;;9.63;4.47;;;;;;;;;;5156073;27;20474;-73
2023/09/28 10:04:03;;;;;;;8.35;4.43;;;;;;;;;;5155969;27;20090;-73
2023/09/28 10:06:52;;;;;;;12.20;5.05;;;;;;;;;;5142212;27;20088;-73
2023/09/28 10:09:39;;;;;;;9.75;4.63;;;;;;;;;;5140942;27;20029;-73
2023/09/28 10:12:25;;;;;;;7.07;4.15;;;;;;;;;;5140664;27;20015;-76
2023/09/28 10:15:11;;;;;;;12.75;5.07;;;;;;;;;;5156122;27;20029;-74
2023/09/28 10:17:57;;;;;;;8.13;4.72;;;;;;;;;;5156254;27;20051;-74
2023/09/28 10:20:42;;;;;;;15.45;5.68;;;;;;;;;;5156384;27;20356;-74
2023/09/28 10:23:28;;;;;;;16.77;4.93;;;;;;;;;;5140614;27;20065;-74
2023/09/28 10:26:18;;;;;;;9.05;5.55;;;;;;;;;;5143201;27;20033;-73
2023/09/28 10:29:04;;;;;;;11.23;4.47;;;;;;;;;;5142316;27;20018;-72
2023/09/28 10:31:53;;;;;;;18.00;4.97;;;;;;;;;;5156570;27;20431;-73
2023/09/28 10:34:43;;;;;;;9.35;4.50;;;;;;;;;;5141065;27;20398;-72
2023/09/28 10:37:31;;;;;;;11.55;4.22;;;;;;;;;;5140187;27;20417;-72
2023/09/28 10:40:18;;;;;;;14.98;4.00;;;;;;;;;;5139823;27;20163;-71
2023/09/28 10:43:07;;;;;;;16.00;4.82;;;;;;;;;;5158645;27;20034;-74
2023/09/28 10:45:53;;;;;;;12.30;4.70;;;;;;;;;;5154833;27;20015;-74
2023/09/28 10:48:39;;;;;;;10.27;4.30;;;;;;;;;;5154805;27;20337;-77
2023/09/28 10:51:29;;;;;;;8.35;4.15;;;;;;;;;;5158600;27;20334;-76
2023/09/28 10:54:15;;;;;;;10.32;4.43;;;;;;;;;;5158650;27;20070;-75
2023/09/28 10:57:03;;;;;;;15.85;4.55;;;;;;;;;;5154771;27;20019;-74
2023/09/28 10:59:49;;;;;;;20.00;4.20;;;;;;;;;;5156079;27;20014;-74
2023/09/28 11:02:36;;;;;;;18.45;4.57;;;;;;;;;;5155203;27;20144;-75
2023/09/28 11:05:22;;;;;;;16.90;4.22;;;;;;;;;;5155744;27;20023;-75
2023/09/28 11:08:08;;;;;;;14.07;4.47;;;;;;;;;;5154506;27;20022;-74
2023/09/28 11:10:58;;;;;;;16.75;4.10;;;;;;;;;;5155514;27;20093;-78
2023/09/28 11:13:44;;;;;;;10.13;3.78;;;;;;;;;;5154836;27;20449;-77
2023/09/28 11:16:30;;;;;;;12.27;4.20;;;;;;;;;;5139506;27;20021;-77
2023/09/28 11:19:19;;;;;;;14.05;3.85;;;;;;;;;;5140089;27;20105;-77
2023/09/28 11:22:05;;;;;;;11.15;4.03;;;;;;;;;;5140930;27;20451;-77
2023/09/28 11:24:51;;;;;;;12.13;4.13;;;;;;;;;;5154751;27;20038;-77
2023/09/28 11:27:36;;;;;;;5.38;3.70;;;;;;;;;;5155336;27;20019;-77
2023/09/28 11:30:22;;;;;;;12.98;4.30;;;;;;;;;;5157345;27;20038;-77
2023/09/28 11:33:08;;;;;;;8.10;3.72;;;;;;;;;;5156332;27;20412;-78
2023/09/28 11:35:54;;;;;;;11.52;3.75;;;;;;;;;;5159804;27;20046;-77
2023/09/28 11:38:40;;;;;;;14.95;3.80;;;;;;;;;;5159340;27;20054;-76
2023/09/28 11:41:26;;;;;;;12.75;4.25;;;;;;;;;;5159641;27;20105;-78
2023/09/28 11:44:19;;;;;;;12.68;4.60;;;;;;;;;;5160035;27;20364;-77
2023/09/28 11:47:05;;;;;;;14.55;4.13;;;;;;;;;;5159436;27;20397;-78
2023/09/28 11:49:50;;;;;;;12.80;3.90;;;;;;;;;;5158874;27;20050;-77
2023/09/28 11:52:37;;;;;;;10.32;3.38;;;;;;;;;;5159808;27;20102;-77
2023/09/28 11:55:22;;;;;;;15.25;3.97;;;;;;;;;;5169435;27;20005;-78
2023/09/28 11:58:11;;;;;;;14.27;4.03;;;;;;;;;;5162741;27;20083;-77
2023/09/28 12:00:57;;;;;;;17.45;3.42;;;;;;;;;;5158731;27;20022;-77
2023/09/28 12:03:44;;;;;;;11.10;3.25;;;;;;;;;;5143965;27;20019;-78
2023/09/28 12:06:31;;;;;;;21.27;3.53;;;;;;;;;;5159037;27;20440;-74
2023/09/28 12:09:17;;;;;;;8.57;2.90;;;;;;;;;;5143647;27;20046;-74
2023/09/28 12:12:03;;;;;;;9.68;2.90;;;;;;;;;;5159782;27;20325;-73
2023/09/28 12:14:49;;;;;;;10.93;2.80;;;;;;;;;;5181241;27;20022;-76
2023/09/28 12:17:34;;;;;;;22.27;3.92;;;;;;;;;;5179821;27;20018;-74
2023/09/28 12:20:20;;;;;;;21.27;4.43;;;;;;;;;;5180236;27;20014;-76
2023/09/28 12:23:06;;;;;;;12.68;3.92;;;;;;;;;;5178829;27;20022;-77
2023/09/28 12:25:52;;;;;;;22.42;5.25;;;;;;;;;;5178134;27;20018;-74
2023/09/28 12:28:39;;;;;;;17.77;4.60;;;;;;;;;;5178160;27;20344;-75
2023/09/28 12:31:25;;;;;;;15.88;3.30;;;;;;;;;;5164206;27;20117;-75
2023/09/28 12:34:13;;;;;;;17.50;3.35;;;;;;;;;;5178935;27;20122;-78
2023/09/28 12:36:59;;;;;;;12.88;2.53;;;;;;;;;;5177423;27;20029;-75
2023/09/28 12:39:45;;;;;;;20.90;3.20;;;;;;;;;;5179378;27;20094;-76
2023/09/28 12:42:34;;;;;;;13.98;3.45;;;;;;;;;;5179700;27;20431;-76
2023/09/28 12:45:20;;;;;;;17.55;2.95;;;;;;;;;;5178441;27;20154;-73
2023/09/28 12:48:06;;;;;;;13.32;3.17;;;;;;;;;;5163286;27;20049;-72
2023/09/28 12:50:51;;;;;;;13.65;3.33;;;;;;;;;;5178223;27;20152;-71
2023/09/28 12:53:43;;;;;;;18.20;3.28;;;;;;;;;;5179849;27;20014;-71
2023/09/28 12:56:31;;;;;;;7.18;2.50;;;;;;;;;;5179705;27;20114;-76
2023/09/28 12:59:17;;;;;;;9.13;2.80;;;;;;;;;;5162315;27;20090;-71
2023/09/28 13:02:05;;;;;;;16.65;2.80;;;;;;;;;;5163469;27;20022;-71
2023/09/28 13:04:52;;;;;;;15.95;3.10;;;;;;;;;;5176068;27;20360;-72
2023/09/28 13:07:37;;;;;;;6.65;3.08;;;;;;;;;;5157312;27;20019;-72
2023/09/28 13:10:27;;;;;;;10.45;2.85;;;;;;;;;;5156292;27;20019;-72
2023/09/28 13:13:12;;;;;;;12.57;3.10;;;;;;;;;;5157965;27;20041;-71
2023/09/28 13:15:58;;;;;;;14.57;3.63;;;;;;;;;;5156300;27;20109;-70
2023/09/28 13:18:44;;;;;;;14.80;3.20;;;;;;;;;;5156907;27;20023;-70
2023/09/28 13:21:29;;;;;;;7.60;3.30;;;;;;;;;;5157233;27;20451;-71
2023/09/28 13:24:15;;;;;;;9.93;3.00;;;;;;;;;;5155908;27;20056;-71
2023/09/28 13:27:01;;;;;;;12.85;3.10;;;;;;;;;;5156781;27;20409;-71
2023/09/28 13:29:46;;;;;;;9.32;3.33;;;;;;;;;;5157050;27;20023;-74
2023/09/28 13:32:33;;;;;;;11.43;3.70;;;;;;;;;;5156262;27;20015;-75
2023/09/28 13:35:19;;;;;;;11.00;3.53;;;;;;;;;;5156869;27;20025;-72
2023/09/28 13:38:08;;;;;;;11.35;3.30;;;;;;;;;;5156577;27;20026;-74
2023/09/28 13:40:53;;;;;;;15.55;3.15;;;;;;;;;;5156016;27;20364;-74
2023/09/28 13:43:39;;;;;;;17.38;3.72;;;;;;;;;;5155860;27;20102;-73
2023/09/28 13:46:24;;;;;;;10.52;3.22;;;;;;;;;;5156776;27;20073;-73
2023/09/28 13:49:10;;;;;;;11.32;3.17;;;;;;;;;;5155557;27;20161;-73
2023/09/28 13:51:59;;;;;;;14.02;3.30;;;;;;;;;;5155728;27;20023;-73
2023/09/28 13:54:45;;;;;;;7.85;3.10;;;;;;;;;;5155313;27;20030;-72
2023/09/28 13:57:30;;;;;;;12.50;3.60;;;;;;;;;;5155090;27;20029;-71
2023/09/28 14:00:22;;;;;;;17.35;3.40;;;;;;;;;;5155782;27;20079;-73
2023/09/28 14:03:08;;;;;;;11.13;3.13;;;;;;;;;;5155714;27;20027;-70
2023/09/28 14:05:54;;;;;;;15.18;3.67;;;;;;;;;;5167386;27;20114;-70
2023/09/28 14:08:40;;;;;;;14.57;3.15;;;;;;;;;;5163494;27;20021;-71
2023/09/28 14:11:25;;;;;;;17.65;4.32;;;;;;;;;;5175958;27;20396;-72
2023/09/28 14:14:12;;;;;;;18.88;3.55;;;;;;;;;;5176618;27;20025;-70
2023/09/28 14:16:58;;;;;;;14.52;3.53;;;;;;;;;;5175407;27;20026;-71
2023/09/28 14:19:44;;;;;;;12.85;3.72;;;;;;;;;;5176421;27;20037;-72
2023/09/28 14:22:29;;;;;;;12.15;3.53;;;;;;;;;;5177547;27;20047;-70
2023/09/28 14:25:16;;;;;;;16.50;4.85;;;;;;;;;;5176807;27;20022;-71
2023/09/28 14:28:02;;;;;;;12.93;3.85;;;;;;;;;;5175736;27;20022;-72
2023/09/28 14:30:48;;;;;;;16.08;4.05;;;;;;;;;;5177030;27;20014;-74
2023/09/28 14:33:33;;;;;;;15.90;4.30;;;;;;;;;;5176709;27;20018;-73
2023/09/28 14:36:22;;;;;;;12.77;3.63;;;;;;;;;;5176230;27;20440;-73
2023/09/28 14:39:07;;;;;;;17.45;3.20;;;;;;;;;;5175464;27;20026;-73
2023/09/28 14:41:53;;;;;;;17.15;3.13;;;;;;;;;;5176192;27;20022;-74
2023/09/28 14:44:39;;;;;;;10.15;3.47;;;;;;;;;;5176388;27;20029;-74
2023/09/28 14:47:25;;;;;;;8.35;3.20;;;;;;;;;;5176410;27;20018;-74
2023/09/28 14:50:13;;;;;;;13.48;3.45;;;;;;;;;;5175993;27;20125;-73
2023/09/28 14:52:58;;;;;;;19.92;3.42;;;;;;;;;;5175374;27;20014;-73
2023/09/28 14:55:44;;;;;;;17.50;3.40;;;;;;;;;;5177968;27;20019;-73
2023/09/28 14:58:30;;;;;;;10.63;2.92;;;;;;;;;;5174949;27;20078;-74
2023/09/28 15:01:16;;;;;;;10.98;3.10;;;;;;;;;;5160586;27;20040;-75
2023/09/28 15:04:01;;;;;;;13.80;3.55;;;;;;;;;;5176198;27;20033;-75
2023/09/28 15:06:47;;;;;;;11.55;2.78;;;;;;;;;;5156977;27;20444;-74
2023/09/28 15:09:33;;;;;;;8.23;3.22;;;;;;;;;;5154479;27;20022;-74
2023/09/28 15:12:20;;;;;;;9.07;3.10;;;;;;;;;;5154111;27;20094;-74
2023/09/28 15:15:07;;;;;;;10.63;3.65;;;;;;;;;;5158245;27;20034;-72
2023/09/28 15:17:52;;;;;;;16.80;3.13;;;;;;;;;;5163416;27;20460;-71
2023/09/28 15:20:40;;;;;;;9.35;3.15;;;;;;;;;;5160634;27;20019;-73
2023/09/28 15:23:26;;;;;;;11.10;3.10;;;;;;;;;;5157750;27;20065;-74
2023/09/28 15:26:12;;;;;;;11.98;3.15;;;;;;;;;;5155897;27;20091;-70
2023/09/28 15:28:57;;;;;;;10.50;3.00;;;;;;;;;;5157120;27;20363;-70
2023/09/28 15:31:43;;;;;;;13.77;3.30;;;;;;;;;;5154957;27;20031;-67
2023/09/28 15:34:29;;;;;;;9.77;2.90;;;;;;;;;;5155514;27;20011;-70
2023/09/28 15:37:18;;;;;;;11.57;3.25;;;;;;;;;;5154464;27;20026;-70
2023/09/28 15:40:05;;;;;;;11.00;3.03;;;;;;;;;;5154482;27;20440;-69
2023/09/28 15:42:54;;;;;;;10.18;2.70;;;;;;;;;;5154268;27;20023;-69
2023/09/28 15:45:46;;;;;;;12.75;3.22;;;;;;;;;;5156641;27;20344;-71
2023/09/28 15:48:32;;;;;;;17.35;3.58;;;;;;;;;;5139591;27;20022;-72
2023/09/28 15:51:17;;;;;;;13.20;4.03;;;;;;;;;;5154339;27;20023;-71
2023/09/28 15:54:03;;;;;;;13.93;3.40;;;;;;;;;;5154917;27;20025;-72
2023/09/28 15:56:49;;;;;;;11.63;3.33;;;;;;;;;;5154899;27;20011;-73
2023/09/28 15:59:34;;;;;;;23.10;3.90;;;;;;;;;;5139572;27;20018;-72
2023/09/28 16:02:20;;;;;;;7.30;3.15;;;;;;;;;;5140147;27;20033;-72
2023/09/28 16:05:08;;;;;;;18.25;3.78;;;;;;;;;;5154151;27;20045;-73
2023/09/28 16:07:55;;;;;;;10.27;3.28;;;;;;;;;;5154332;27;20034;-72
2023/09/28 16:10:41;;;;;;;11.50;3.17;;;;;;;;;;5155030;27;20015;-72
2023/09/28 16:13:27;;;;;;;16.05;3.83;;;;;;;;;;5154210;27;20068;-72
2023/09/28 16:16:15;;;;;;;16.95;3.50;;;;;;;;;;5154175;27;20086;-73
2023/09/28 16:19:02;;;;;;;17.55;3.50;;;;;;;;;;5154858;27;20027;-72
2023/09/28 16:21:48;;;;;;;17.63;3.97;;;;;;;;;;5158118;27;20019;-72
2023/09/28 16:24:34;;;;;;;14.07;3.83;;;;;;;;;;5158262;27;20433;-74
2023/09/28 16:27:19;;;;;;;19.67;3.50;;;;;;;;;;5143554;27;20405;-73